createdAt,value
2022-11-04T00:00:45.754Z,9.93
2022-11-04T00:03:12.690Z,9.13
2022-11-04T00:05:39.559Z,10.00
2022-11-04T00:08:24.490Z,9.30
2022-11-04T00:11:18.067Z,10.00
2022-11-04T00:13:46.115Z,9.43
2022-11-04T00:16:33.182Z,10.07
2022-11-04T00:19:01.206Z,9.37
2022-11-04T00:21:47.559Z,10.20
2022-11-04T00:24:33.509Z,11.37
2022-11-04T00:27:19.267Z,10.63
2022-11-04T00:29:46.139Z,8.67
2022-11-04T00:32:31.573Z,9.33
2022-11-04T00:34:58.442Z,10.13
2022-11-04T00:37:25.323Z,9.33
2022-11-04T00:39:52.190Z,10.77
2022-11-04T00:42:19.064Z,10.53
2022-11-04T00:44:45.966Z,7.93
2022-11-04T00:47:12.923Z,8.83
2022-11-04T00:49:39.908Z,8.97
2022-11-04T00:52:06.790Z,8.20
2022-11-04T00:54:33.668Z,9.37
2022-11-04T00:57:00.570Z,9.20
2022-11-04T00:59:27.443Z,8.90
2022-11-04T01:01:54.497Z,9.33
2022-11-04T01:04:21.454Z,9.73
2022-11-04T01:06:48.361Z,10.20
2022-11-04T01:09:15.232Z,9.47
2022-11-04T01:11:42.263Z,10.13
2022-11-04T01:14:09.143Z,9.60
2022-11-04T01:16:36.286Z,9.90
2022-11-04T01:19:03.751Z,9.40
2022-11-04T01:21:30.970Z,9.40
2022-11-04T01:23:57.891Z,12.23
2022-11-04T01:26:26.876Z,9.70
2022-11-04T01:28:55.785Z,11.23
2022-11-04T01:31:29.230Z,10.43
2022-11-04T01:33:57.238Z,10.17
2022-11-04T01:36:25.467Z,10.50
2022-11-04T01:38:52.432Z,10.70
2022-11-04T01:41:26.458Z,11.67
2022-11-04T01:43:59.298Z,11.67
2022-11-04T01:46:38.210Z,11.60
2022-11-04T01:49:30.203Z,9.43
2022-11-04T01:52:07.810Z,9.50
2022-11-04T01:54:35.810Z,9.60
2022-11-04T01:57:06.303Z,10.60
2022-11-04T01:59:37.624Z,8.57
2022-11-04T02:02:05.128Z,9.20
2022-11-04T02:04:32.304Z,10.37
2022-11-04T02:07:08.307Z,10.23
2022-11-04T02:09:37.557Z,11.30
2022-11-04T02:12:23.435Z,12.40
2022-11-04T02:14:51.871Z,11.20
2022-11-04T02:17:18.623Z,11.30
2022-11-04T02:20:08.410Z,10.90
2022-11-04T02:23:04.599Z,10.13
2022-11-04T02:25:53.310Z,10.70
2022-11-04T02:28:44.997Z,9.30
2022-11-04T02:31:51.376Z,10.23
2022-11-04T02:34:52.846Z,10.37
2022-11-04T02:37:44.000Z,10.97
2022-11-04T02:40:45.794Z,11.03
2022-11-04T02:43:23.854Z,11.37
2022-11-04T02:46:05.631Z,10.20
2022-11-04T02:48:53.838Z,9.70
2022-11-04T02:51:36.702Z,11.83
2022-11-04T02:54:12.374Z,11.87
2022-11-04T02:56:45.134Z,11.77
2022-11-04T02:59:20.307Z,10.77
2022-11-04T03:01:49.830Z,10.70
2022-11-04T03:04:22.130Z,11.23
2022-11-04T03:06:51.186Z,10.57
2022-11-04T03:09:20.641Z,10.87
2022-11-04T03:11:55.435Z,11.10
2022-11-04T03:14:50.004Z,11.50
2022-11-04T03:17:34.955Z,11.07
2022-11-04T03:20:06.447Z,11.10
2022-11-04T03:22:37.211Z,11.13
2022-11-04T03:25:09.354Z,10.87
2022-11-04T03:27:51.134Z,10.97
2022-11-04T03:30:22.157Z,11.87
2022-11-04T03:33:19.521Z,11.93
2022-11-04T03:35:46.576Z,12.50
2022-11-04T03:38:13.676Z,10.70
2022-11-04T03:40:40.895Z,10.70
2022-11-04T03:43:28.360Z,10.60
2022-11-04T03:45:55.543Z,11.60
2022-11-04T03:48:23.804Z,11.00
2022-11-04T03:50:51.755Z,10.93
2022-11-04T03:56:58.867Z,10.87
2022-11-04T03:59:57.334Z,12.77
2022-11-04T04:03:03.043Z,13.33
2022-11-04T04:05:32.104Z,11.10
2022-11-04T04:08:33.840Z,11.53
2022-11-04T04:11:19.461Z,13.03
2022-11-04T04:14:37.116Z,13.40
2022-11-04T04:17:26.898Z,12.57
2022-11-04T04:20:01.841Z,13.03
2022-11-04T04:22:34.283Z,12.67
2022-11-04T04:25:25.439Z,12.73
2022-11-04T04:27:53.757Z,13.00
2022-11-04T04:30:20.856Z,11.87
2022-11-04T04:33:03.312Z,11.30
2022-11-04T04:35:44.459Z,11.20
2022-11-04T04:38:42.489Z,12.57
2022-11-04T04:41:37.933Z,14.07
2022-11-04T04:44:32.603Z,13.07
2022-11-04T04:47:02.483Z,11.03
2022-11-04T04:49:35.385Z,11.27
2022-11-04T04:52:04.802Z,12.27
2022-11-04T04:54:31.673Z,12.30
2022-11-04T04:56:58.602Z,12.10
2022-11-04T04:59:25.474Z,10.50
2022-11-04T05:01:52.448Z,12.83
2022-11-04T05:04:19.473Z,13.20
2022-11-04T05:06:46.375Z,13.67
2022-11-04T05:09:13.243Z,13.83
2022-11-04T05:11:40.125Z,12.20
2022-11-04T05:14:07.015Z,14.13
2022-11-04T05:16:39.464Z,14.50
2022-11-04T05:19:07.431Z,14.73
2022-11-04T05:21:34.311Z,13.30
2022-11-04T05:24:01.199Z,13.60
2022-11-04T05:26:28.123Z,13.37
2022-11-04T05:28:55.000Z,13.50
2022-11-04T05:31:21.955Z,12.43
2022-11-04T05:33:48.825Z,12.87
2022-11-04T05:36:17.271Z,12.93
2022-11-04T05:38:44.603Z,13.50
2022-11-04T05:41:25.693Z,14.67
2022-11-04T05:43:54.781Z,13.03
2022-11-04T05:46:22.676Z,12.87
2022-11-04T05:48:49.560Z,14.40
2022-11-04T05:51:23.457Z,12.40
2022-11-04T05:53:50.701Z,12.43
2022-11-04T05:56:17.641Z,12.40
2022-11-04T05:58:44.527Z,12.30
2022-11-04T06:01:35.964Z,13.53
2022-11-04T06:04:05.269Z,11.93
2022-11-04T06:06:35.356Z,13.00
2022-11-04T06:09:02.992Z,14.20
2022-11-04T06:11:30.722Z,13.40
2022-11-04T06:13:58.486Z,12.47
2022-11-04T06:16:25.952Z,12.00
2022-11-04T06:18:53.378Z,13.00
2022-11-04T06:21:25.387Z,13.20
2022-11-04T06:23:55.436Z,14.50
2022-11-04T06:26:25.370Z,13.20
2022-11-04T06:28:55.059Z,13.07
2022-11-04T06:31:22.142Z,13.70
2022-11-04T06:33:49.091Z,14.10
2022-11-04T06:36:17.541Z,14.83
2022-11-04T06:38:45.198Z,13.43
2022-11-04T06:41:15.943Z,13.63
2022-11-04T06:43:42.981Z,14.60
2022-11-04T06:46:35.004Z,12.13
2022-11-04T06:49:02.227Z,12.70
2022-11-04T06:51:29.516Z,13.20
2022-11-04T06:53:56.415Z,13.33
2022-11-04T06:56:23.494Z,13.63
2022-11-04T06:58:52.875Z,12.20
2022-11-04T07:01:22.686Z,12.63
2022-11-04T07:03:55.906Z,12.60
2022-11-04T07:06:23.393Z,12.27
2022-11-04T07:08:52.661Z,12.03
2022-11-04T07:11:21.814Z,12.20
2022-11-04T07:13:49.647Z,13.13
2022-11-04T07:16:17.945Z,12.40
2022-11-04T07:18:45.609Z,13.33
2022-11-04T07:21:12.591Z,14.93
2022-11-04T07:23:39.539Z,12.63
2022-11-04T07:26:08.726Z,12.97
2022-11-04T07:28:36.123Z,13.60
2022-11-04T07:31:05.010Z,13.67
2022-11-04T07:33:33.754Z,14.13
2022-11-04T07:36:06.514Z,13.53
2022-11-04T07:38:33.407Z,13.70
2022-11-04T07:41:00.433Z,12.87
2022-11-04T07:43:27.741Z,12.97
2022-11-04T07:46:07.055Z,14.00
2022-11-04T07:48:34.636Z,13.30
2022-11-04T07:51:02.331Z,12.07
2022-11-04T07:53:30.721Z,11.93
2022-11-04T07:55:57.910Z,13.60
2022-11-04T07:58:26.264Z,12.00
2022-11-04T08:01:03.132Z,12.23
2022-11-04T08:03:30.063Z,12.77
2022-11-04T08:06:01.738Z,13.07
2022-11-04T08:08:29.596Z,12.70
2022-11-04T08:11:00.449Z,11.67
2022-11-04T08:13:31.938Z,12.23
2022-11-04T08:16:09.948Z,12.90
2022-11-04T08:18:36.962Z,13.53
2022-11-04T08:21:04.799Z,13.47
2022-11-04T08:23:32.717Z,13.43
2022-11-04T08:25:59.634Z,13.37
2022-11-04T08:28:27.414Z,12.60
2022-11-04T08:31:24.929Z,13.47
2022-11-04T08:33:53.198Z,13.40
2022-11-04T08:36:31.730Z,12.87
2022-11-04T08:38:59.135Z,12.37
2022-11-04T08:41:29.426Z,14.50
2022-11-04T08:44:00.769Z,14.23
2022-11-04T08:46:29.328Z,11.67
2022-11-04T08:48:56.243Z,13.00
2022-11-04T08:51:26.661Z,12.10
2022-11-04T08:53:53.663Z,13.40
2022-11-04T08:56:28.045Z,12.00
2022-11-04T08:58:58.189Z,12.30
2022-11-04T09:01:30.026Z,13.33
2022-11-04T09:04:01.304Z,13.40
2022-11-04T09:06:34.271Z,14.53
2022-11-04T09:09:04.747Z,14.13
2022-11-04T09:11:34.261Z,12.07
2022-11-04T09:14:02.419Z,12.97
2022-11-04T09:16:31.399Z,13.33
2022-11-04T09:18:59.510Z,12.83
2022-11-04T09:21:28.131Z,11.07
2022-11-04T09:23:55.990Z,12.50
2022-11-04T09:26:24.606Z,12.33
2022-11-04T09:28:56.023Z,13.83
2022-11-04T09:31:23.801Z,12.00
2022-11-04T09:33:50.948Z,12.47
2022-11-04T09:36:18.114Z,11.03
2022-11-04T09:38:45.463Z,12.00
2022-11-04T09:42:03.256Z,12.10
2022-11-04T09:45:20.198Z,12.30
2022-11-04T09:47:45.234Z,11.87
2022-11-04T09:50:27.561Z,12.07
2022-11-04T09:53:05.492Z,11.50
2022-11-04T09:55:44.543Z,10.03
2022-11-04T09:58:14.705Z,12.10
2022-11-04T10:00:48.884Z,11.70
2022-11-04T10:03:52.905Z,11.33
2022-11-04T10:06:53.451Z,11.00
2022-11-04T10:09:38.627Z,11.70
2022-11-04T10:12:46.670Z,11.60
2022-11-04T10:15:49.635Z,11.73
2022-11-04T10:19:00.562Z,12.00
2022-11-04T10:22:10.519Z,9.83
2022-11-04T10:24:55.062Z,11.57
2022-11-04T10:27:30.364Z,11.77
2022-11-04T10:30:24.934Z,12.50
2022-11-04T10:33:24.089Z,10.53
2022-11-04T10:36:08.367Z,11.73
2022-11-04T10:38:51.510Z,11.93
2022-11-04T10:41:24.094Z,11.07
2022-11-04T10:43:55.895Z,11.17
2022-11-04T10:46:49.149Z,12.47
2022-11-04T10:49:26.247Z,10.90
2022-11-04T10:51:54.399Z,12.67
2022-11-04T10:54:21.547Z,11.83
2022-11-04T10:56:53.055Z,10.50
2022-11-04T10:59:37.389Z,12.67
2022-11-04T11:02:05.112Z,11.80
2022-11-04T11:04:38.372Z,11.83
2022-11-04T11:07:09.104Z,10.97
2022-11-04T11:09:49.708Z,11.83
2022-11-04T11:12:50.604Z,12.03
2022-11-04T11:15:33.276Z,12.10
2022-11-04T11:18:15.603Z,12.30
2022-11-04T11:20:52.262Z,12.07
2022-11-04T11:23:47.638Z,12.27
2022-11-04T11:26:30.054Z,12.50
2022-11-04T11:29:02.281Z,11.87
2022-11-04T11:31:37.529Z,10.63
2022-11-04T11:34:13.151Z,11.77
2022-11-04T11:36:40.859Z,11.30
2022-11-04T11:39:22.063Z,10.77
2022-11-04T11:42:11.748Z,10.07
2022-11-04T11:44:44.533Z,9.20
2022-11-04T11:47:38.079Z,9.90
2022-11-04T11:50:18.312Z,9.90
2022-11-04T11:52:49.647Z,9.43
2022-11-04T11:55:36.635Z,9.97
2022-11-04T12:01:25.155Z,10.30
2022-11-04T12:09:47.558Z,10.50
2022-11-04T12:12:56.785Z,8.77
2022-11-04T12:16:06.444Z,9.23
2022-11-04T12:18:52.758Z,9.20
2022-11-04T12:21:33.347Z,8.70
2022-11-04T12:24:27.650Z,8.87
2022-11-04T12:27:26.242Z,9.30
2022-11-04T12:30:03.400Z,8.43
2022-11-04T12:33:15.289Z,9.63
2022-11-04T12:36:07.833Z,8.23
2022-11-04T12:38:43.149Z,8.07
2022-11-04T12:42:14.222Z,8.67
2022-11-04T12:44:38.502Z,9.03
2022-11-04T12:47:34.970Z,9.83
2022-11-04T12:50:44.088Z,8.67
2022-11-04T12:53:52.945Z,11.40
2022-11-04T12:56:27.140Z,9.50
2022-11-04T12:59:49.701Z,8.93
2022-11-04T13:02:30.112Z,8.90
2022-11-04T13:05:09.829Z,10.00
2022-11-04T13:07:45.863Z,9.27
2022-11-04T13:10:53.549Z,9.60
2022-11-04T13:13:29.840Z,9.73
2022-11-04T13:16:02.409Z,8.87
2022-11-04T13:18:35.629Z,9.50
2022-11-04T13:21:14.227Z,9.70
2022-11-04T13:23:51.721Z,9.50
2022-11-04T13:26:19.138Z,9.20
2022-11-04T13:29:04.430Z,8.57
2022-11-04T13:31:48.127Z,10.40
2022-11-04T13:34:22.952Z,10.17
2022-11-04T13:37:05.021Z,9.27
2022-11-04T13:39:46.184Z,9.87
2022-11-04T13:42:34.803Z,11.47
2022-11-04T13:45:14.140Z,9.93
2022-11-04T13:47:53.368Z,10.40
2022-11-04T13:50:39.937Z,14.53
2022-11-04T13:53:11.389Z,14.57
2022-11-04T13:55:51.466Z,12.00
2022-11-04T13:58:25.941Z,13.00
2022-11-04T14:01:23.607Z,12.10
2022-11-04T14:04:31.218Z,10.00
2022-11-04T14:07:06.300Z,10.03
2022-11-04T14:09:36.907Z,8.80
2022-11-04T14:12:18.822Z,10.47
2022-11-04T14:14:53.203Z,9.47
2022-11-04T14:17:35.335Z,10.27
2022-11-04T14:20:15.385Z,8.00
2022-11-04T14:22:57.649Z,11.47
2022-11-04T14:25:44.355Z,13.30
2022-11-04T14:28:11.112Z,9.77
2022-11-04T14:30:52.208Z,10.60
2022-11-04T14:33:53.738Z,12.70
2022-11-04T14:36:20.726Z,12.60
2022-11-04T14:39:18.843Z,11.80
2022-11-04T14:41:53.620Z,9.53
2022-11-04T14:44:36.459Z,9.50
2022-11-04T14:47:21.885Z,13.27
2022-11-04T14:50:25.510Z,22.30
2022-11-04T14:53:01.531Z,20.03
2022-11-04T14:55:31.416Z,15.27
2022-11-04T14:58:26.145Z,29.17
2022-11-04T15:00:56.278Z,34.60
2022-11-04T15:06:13.745Z,13.60
2022-11-04T15:08:40.483Z,14.80
2022-11-04T15:11:16.625Z,14.13
2022-11-04T15:13:48.307Z,20.37
2022-11-04T15:16:25.959Z,17.60
2022-11-04T15:18:56.484Z,87.50
2022-11-04T15:21:24.287Z,26.80
2022-11-04T15:23:53.573Z,16.50
2022-11-04T15:26:30.052Z,15.30
2022-11-04T15:28:59.663Z,15.70
2022-11-04T15:31:29.849Z,13.60
2022-11-04T15:34:00.537Z,11.50
2022-11-04T15:36:35.407Z,11.80
2022-11-04T15:39:06.710Z,10.93
2022-11-04T15:41:56.713Z,15.47
2022-11-04T15:44:26.577Z,14.63
2022-11-04T15:47:00.116Z,14.30
2022-11-04T15:49:30.002Z,11.53
2022-11-04T15:52:05.581Z,12.70
2022-11-04T15:54:37.128Z,13.37
2022-11-04T15:57:22.609Z,12.60
2022-11-04T16:00:09.863Z,11.90
2022-11-04T16:02:57.251Z,12.50
2022-11-04T16:05:33.317Z,13.40
2022-11-04T16:08:22.748Z,11.83
2022-11-04T16:10:50.775Z,12.50
2022-11-04T16:13:17.649Z,11.77
2022-11-04T16:16:09.125Z,12.80
2022-11-04T16:18:43.642Z,11.47
2022-11-04T16:21:24.374Z,10.93
2022-11-04T16:24:04.887Z,18.33
2022-11-04T16:26:38.081Z,25.53
2022-11-04T16:29:10.151Z,44.10
2022-11-04T16:31:37.631Z,24.33
2022-11-04T16:34:08.386Z,30.33
2022-11-04T16:36:36.026Z,16.70
2022-11-04T16:39:09.004Z,41.93
2022-11-04T16:41:40.638Z,47.60
2022-11-04T16:44:21.442Z,30.43
2022-11-04T16:46:48.578Z,53.07
2022-11-04T16:49:21.878Z,40.07
2022-11-04T16:51:55.469Z,31.47
2022-11-04T16:54:23.465Z,28.87
2022-11-04T16:56:50.631Z,33.60
2022-11-04T16:59:17.841Z,28.03
2022-11-04T17:01:44.846Z,27.03
2022-11-04T17:04:11.931Z,20.30
2022-11-04T17:06:39.381Z,18.33
2022-11-04T17:09:22.375Z,32.97
2022-11-04T17:11:49.710Z,34.37
2022-11-04T17:14:16.590Z,21.23
2022-11-04T17:16:44.254Z,28.67
2022-11-04T17:19:17.437Z,20.37
2022-11-04T17:21:45.431Z,25.67
2022-11-04T17:24:12.434Z,26.80
2022-11-04T17:26:39.348Z,31.40
2022-11-04T17:29:06.325Z,30.80
2022-11-04T17:31:33.463Z,22.67
2022-11-04T17:34:00.411Z,22.60
2022-11-04T17:36:27.558Z,31.43
2022-11-04T17:38:54.431Z,25.00
2022-11-04T17:41:39.545Z,16.10
2022-11-04T17:44:06.621Z,20.77
2022-11-04T17:46:34.557Z,16.17
2022-11-04T17:49:05.360Z,17.40
2022-11-04T17:51:32.399Z,18.30
2022-11-04T17:53:59.280Z,14.80
2022-11-04T17:56:26.497Z,17.10
2022-11-04T17:58:54.003Z,12.03
2022-11-04T18:01:23.668Z,11.37
2022-11-04T18:03:52.533Z,12.10
2022-11-04T18:06:21.036Z,13.40
2022-11-04T18:08:48.632Z,15.33
2022-11-04T18:11:36.107Z,11.67
2022-11-04T18:14:03.050Z,12.03
2022-11-04T18:16:29.954Z,13.67
2022-11-04T18:19:01.101Z,12.30
2022-11-04T18:21:29.242Z,11.07
2022-11-04T18:23:56.319Z,12.20
2022-11-04T18:26:24.037Z,11.60
2022-11-04T18:28:51.666Z,13.67
2022-11-04T18:31:34.554Z,12.27
2022-11-04T18:34:05.450Z,10.67
2022-11-04T18:36:33.812Z,10.53
2022-11-04T18:39:01.281Z,17.00
2022-11-04T18:41:28.594Z,11.57
2022-11-04T18:43:55.533Z,9.73
2022-11-04T18:46:22.458Z,14.77
2022-11-04T18:48:51.402Z,10.70
2022-11-04T18:51:22.362Z,11.50
2022-11-04T18:53:50.641Z,11.30
2022-11-04T18:56:21.162Z,10.50
2022-11-04T18:58:48.645Z,9.93
2022-11-04T19:01:22.138Z,10.93
2022-11-04T19:03:50.437Z,8.93
2022-11-04T19:06:27.005Z,9.03
2022-11-04T19:09:13.333Z,10.53
2022-11-04T19:12:09.879Z,9.23
2022-11-04T19:14:36.753Z,9.13
2022-11-04T19:17:03.631Z,9.50
2022-11-04T19:19:30.497Z,8.10
2022-11-04T19:21:57.384Z,9.00
2022-11-04T19:24:24.239Z,9.37
2022-11-04T19:26:51.118Z,8.37
2022-11-04T19:29:18.086Z,9.23
2022-11-04T19:31:45.121Z,8.80
2022-11-04T19:34:11.979Z,10.03
2022-11-04T19:36:38.869Z,9.77
2022-11-04T19:39:06.213Z,10.20
2022-11-04T19:41:51.457Z,9.73
2022-11-04T19:44:20.384Z,9.97
2022-11-04T19:46:47.767Z,10.80
2022-11-04T19:49:15.340Z,9.93
2022-11-04T19:51:42.360Z,9.93
2022-11-04T19:54:09.827Z,10.33
2022-11-04T19:56:37.230Z,10.00
2022-11-04T19:59:06.697Z,10.03
2022-11-04T20:01:35.307Z,11.47
2022-11-04T20:04:04.211Z,12.23
2022-11-04T20:06:33.053Z,10.20
2022-11-04T20:09:07.605Z,10.27
2022-11-04T20:11:56.626Z,10.37
2022-11-04T20:14:24.576Z,10.07
2022-11-04T20:16:51.554Z,8.90
2022-11-04T20:19:22.428Z,9.80
2022-11-04T20:21:49.870Z,9.50
2022-11-04T20:24:16.894Z,9.57
2022-11-04T20:26:44.139Z,10.10
2022-11-04T20:29:11.561Z,9.03
2022-11-04T20:31:39.526Z,9.60
2022-11-04T20:34:08.672Z,9.70
2022-11-04T20:36:37.469Z,9.83
2022-11-04T20:39:19.494Z,9.57
2022-11-04T20:41:47.060Z,10.23
2022-11-04T20:44:15.736Z,9.93
2022-11-04T20:46:44.156Z,10.90
2022-11-04T20:49:12.327Z,10.80
2022-11-04T20:51:42.362Z,11.47
2022-11-04T20:54:12.562Z,11.70
2022-11-04T20:56:41.143Z,10.37
2022-11-04T20:59:11.639Z,10.07
2022-11-04T21:01:41.846Z,10.10
2022-11-04T21:04:18.056Z,11.03
2022-11-04T21:06:46.241Z,11.50
2022-11-04T21:09:15.530Z,10.47
2022-11-04T21:11:42.941Z,9.77
2022-11-04T21:14:14.549Z,10.07
2022-11-04T21:16:42.296Z,10.10
2022-11-04T21:19:11.796Z,11.03
2022-11-04T21:21:42.198Z,9.30
2022-11-04T21:24:13.371Z,9.00
2022-11-04T21:26:40.940Z,8.73
2022-11-04T21:29:11.803Z,8.67
2022-11-04T21:31:39.705Z,9.10
2022-11-04T21:34:06.618Z,11.30
2022-11-04T21:36:34.076Z,12.90
2022-11-04T21:39:01.323Z,12.53
2022-11-04T21:41:33.248Z,11.70
2022-11-04T21:44:02.619Z,11.20
2022-11-04T21:46:32.256Z,10.67
2022-11-04T21:49:00.831Z,10.37
2022-11-04T21:51:30.951Z,9.67
2022-11-04T21:53:59.147Z,9.20
2022-11-04T21:56:29.022Z,8.60
2022-11-04T21:58:56.264Z,9.10
2022-11-04T22:01:26.759Z,8.80
2022-11-04T22:03:56.699Z,10.00
2022-11-04T22:06:24.317Z,9.60
2022-11-04T22:08:54.203Z,8.97
2022-11-04T22:11:30.338Z,9.80
2022-11-04T22:14:00.080Z,9.13
2022-11-04T22:16:30.306Z,9.33
2022-11-04T22:19:03.718Z,8.80
2022-11-04T22:21:31.655Z,9.93
2022-11-04T22:23:59.657Z,8.47
2022-11-04T22:26:32.408Z,9.83
2022-11-04T22:29:00.086Z,9.80
2022-11-04T22:31:30.555Z,9.17
2022-11-04T22:33:58.390Z,9.53
2022-11-04T22:36:25.988Z,7.70
2022-11-04T22:38:53.051Z,8.10
2022-11-04T22:41:24.224Z,8.10
2022-11-04T22:43:51.081Z,8.53
2022-11-04T22:46:28.493Z,8.70
2022-11-04T22:48:55.674Z,8.67
2022-11-04T22:51:22.839Z,8.13
2022-11-04T22:53:57.834Z,8.00
2022-11-04T22:56:26.008Z,7.70
2022-11-04T22:58:54.177Z,7.00
2022-11-04T23:01:21.463Z,7.87
2022-11-04T23:03:52.060Z,8.40
2022-11-04T23:06:19.516Z,8.53
2022-11-04T23:08:46.395Z,8.20
2022-11-04T23:11:39.109Z,9.13
2022-11-04T23:14:24.611Z,9.17
2022-11-04T23:17:10.661Z,8.23
2022-11-04T23:19:38.610Z,7.90
2022-11-04T23:22:25.329Z,8.30
2022-11-04T23:25:09.492Z,7.90
2022-11-04T23:28:03.449Z,7.57
2022-11-04T23:30:40.714Z,8.10
2022-11-04T23:33:11.237Z,9.17
2022-11-04T23:36:03.915Z,8.97
2022-11-04T23:38:30.919Z,7.77
2022-11-04T23:41:23.637Z,7.77
2022-11-04T23:43:50.617Z,8.53
2022-11-04T23:46:42.288Z,8.07
2022-11-04T23:49:13.332Z,7.97
2022-11-04T23:52:12.706Z,6.70
2022-11-04T23:54:58.069Z,7.30
2022-11-04T23:57:43.554Z,6.33
